Time;durP1;ratioP1;P1;durP2;ratioP2;P2;SDS_P1;SDS_P2;PMS_P1;PMS_P2;Temp;Humidity;BMP_temperature;BMP_pressure;BME280_temperature;BME280_humidity;BME280_pressure;Samples;Min_cycle;Max_cycle;Signal;HPM_P1;HPM_P2
2022/06/15 00:01:20;;;;;;;3.33;1.70;;;15.40;99.90;;;;;;5061309;28;20233;-70
2022/06/15 00:03:48;;;;;;;2.37;1.67;;;15.30;99.90;;;;;;5075192;28;20277;-70
2022/06/15 00:06:21;;;;;;;3.50;1.90;;;15.40;99.90;;;;;;5065530;28;20553;-70
2022/06/15 00:08:52;;;;;;;2.40;1.40;;;15.30;99.90;;;;;;5074529;28;20722;-70
2022/06/15 00:11:23;;;;;;;4.60;1.60;;;15.30;99.90;;;;;;5074826;28;20226;-70
2022/06/15 00:13:53;;;;;;;1.97;1.70;;;15.40;99.90;;;;;;5074197;28;20215;-70
2022/06/15 00:16:22;;;;;;;3.40;1.70;;;15.40;99.90;;;;;;5074499;28;20220;-70
2022/06/15 00:18:52;;;;;;;2.97;1.80;;;15.40;99.90;;;;;;5067996;28;20251;-70
2022/06/15 00:21:22;;;;;;;4.43;1.87;;;15.30;99.90;;;;;;5074966;28;20246;-70
2022/06/15 00:23:51;;;;;;;3.27;1.63;;;15.30;99.90;;;;;;5074956;28;20227;-70
2022/06/15 00:26:19;;;;;;;3.23;2.00;;;15.40;99.90;;;;;;5073487;28;20277;-70
2022/06/15 00:28:47;;;;;;;3.63;2.00;;;15.30;99.90;;;;;;5056172;28;20551;-70
2022/06/15 00:31:15;;;;;;;1.93;1.73;;;15.20;99.90;;;;;;5074238;28;20796;-70
2022/06/15 00:33:44;;;;;;;2.80;1.80;;;15.10;99.90;;;;;;5068923;28;20573;-70
2022/06/15 00:36:14;;;;;;;3.30;2.10;;;15.20;99.90;;;;;;5066227;28;20246;-70
2022/06/15 00:38:46;;;;;;;3.27;1.90;;;15.20;99.90;;;;;;5072786;28;20215;-70
2022/06/15 00:41:18;;;;;;;3.20;1.80;;;15.30;99.90;;;;;;5073944;28;20966;-70
2022/06/15 00:43:48;;;;;;;5.47;2.20;;;15.20;99.90;;;;;;5065181;28;20306;-70
2022/06/15 00:46:22;;;;;;;2.10;1.90;;;15.20;99.90;;;;;;5070743;28;20680;-70
2022/06/15 00:48:55;;;;;;;3.43;2.07;;;15.20;99.90;;;;;;5073977;28;20219;-70
2022/06/15 00:51:25;;;;;;;3.53;2.40;;;15.20;99.90;;;;;;5074126;28;20277;-70
2022/06/15 00:53:56;;;;;;;2.50;2.10;;;15.20;99.90;;;;;;5074079;28;20226;-70
2022/06/15 00:56:25;;;;;;;3.60;2.30;;;15.20;99.90;;;;;;5057179;28;20235;-70
2022/06/15 00:58:56;;;;;;;4.80;2.43;;;15.10;99.90;;;;;;5067198;28;20223;-70
2022/06/15 01:01:24;;;;;;;3.67;2.03;;;15.10;99.90;;;;;;5073647;28;20235;-70
2022/06/15 01:03:54;;;;;;;4.80;2.33;;;15.10;99.90;;;;;;5073898;28;20227;-70
2022/06/15 01:06:33;;;;;;;2.87;2.20;;;15.20;99.90;;;;;;5072887;28;20478;-69
2022/06/15 01:09:10;;;;;;;3.70;2.33;;;15.10;99.90;;;;;;5068319;28;20633;-70
2022/06/15 01:11:55;;;;;;;4.03;2.40;;;15.00;99.90;;;;;;5069278;28;20266;-70
2022/06/15 01:14:41;;;;;;;3.13;2.50;;;15.00;99.90;;;;;;5067318;28;20227;-70
2022/06/15 01:17:21;;;;;;;3.70;2.60;;;15.00;99.90;;;;;;5048020;28;20706;-70
2022/06/15 01:20:10;;;;;;;3.27;2.80;;;15.00;99.90;;;;;;5072767;28;20222;-70
2022/06/15 01:23:11;;;;;;;3.43;2.50;;;14.90;99.90;;;;;;5055577;28;20239;-70
2022/06/15 01:25:44;;;;;;;5.37;2.70;;;14.90;99.90;;;;;;5051497;28;20230;-70
2022/06/15 01:28:37;;;;;;;3.97;2.67;;;14.80;99.90;;;;;;5044449;28;20657;-70
2022/06/15 01:31:21;;;;;;;5.17;2.70;;;14.70;99.90;;;;;;5054394;28;20644;-70
2022/06/15 01:34:01;;;;;;;2.63;2.30;;;14.70;99.90;;;;;;5053890;28;20222;-70
2022/06/15 01:36:38;;;;;;;3.30;2.30;;;14.70;99.90;;;;;;5064716;28;20278;-70
2022/06/15 01:39:12;;;;;;;4.33;2.57;;;14.70;99.90;;;;;;5055702;28;20360;-70
2022/06/15 01:41:45;;;;;;;4.90;2.70;;;14.60;99.90;;;;;;5068242;28;20211;-70
2022/06/15 01:44:16;;;;;;;4.73;2.80;;;14.60;99.90;;;;;;5054939;28;20223;-70
2022/06/15 01:46:48;;;;;;;3.00;2.40;;;14.50;99.90;;;;;;5046769;28;20664;-70
2022/06/15 01:49:21;;;;;;;4.53;2.50;;;14.50;99.90;;;;;;5073264;28;20705;-70
2022/06/15 01:51:51;;;;;;;2.90;2.60;;;14.50;99.90;;;;;;5051919;28;20223;-70
2022/06/15 01:54:23;;;;;;;6.20;2.97;;;14.50;99.90;;;;;;5055449;28;20227;-70
2022/06/15 01:56:55;;;;;;;5.03;3.00;;;14.50;99.90;;;;;;5053301;28;20224;-70
2022/06/15 01:59:29;;;;;;;3.50;2.60;;;14.40;99.90;;;;;;5055005;28;20249;-70
2022/06/15 02:02:05;;;;;;;4.47;2.17;;;14.50;99.90;;;;;;5054201;28;20261;-70
2022/06/15 02:04:41;;;;;;;4.00;2.93;;;14.40;99.90;;;;;;5053896;28;20222;-70
2022/06/15 02:07:22;;;;;;;4.20;2.67;;;14.50;99.90;;;;;;5064691;28;20215;-70
2022/06/15 02:09:57;;;;;;;4.47;2.83;;;14.40;99.90;;;;;;5051885;28;20221;-70
2022/06/15 02:12:50;;;;;;;4.80;3.43;;;14.30;99.90;;;;;;5054381;28;20326;-70
2022/06/15 02:15:25;;;;;;;4.23;2.70;;;14.30;99.90;;;;;;5052489;28;20227;-70
2022/06/15 02:18:00;;;;;;;4.00;2.87;;;14.30;99.90;;;;;;5064494;28;20269;-70
2022/06/15 02:20:32;;;;;;;3.73;2.90;;;14.40;99.90;;;;;;5050457;28;20314;-70
2022/06/15 02:23:03;;;;;;;2.83;2.53;;;14.20;99.90;;;;;;5072349;28;20215;-70
2022/06/15 02:25:35;;;;;;;2.93;2.60;;;14.20;99.90;;;;;;5053030;28;20227;-70
2022/06/15 02:28:08;;;;;;;3.83;2.43;;;14.20;99.90;;;;;;5054201;28;20222;-70
2022/06/15 02:30:40;;;;;;;3.30;2.50;;;14.20;99.90;;;;;;5058662;28;20318;-70
2022/06/15 02:33:13;;;;;;;4.57;2.57;;;14.20;99.90;;;;;;5055772;28;20230;-70
2022/06/15 02:35:42;;;;;;;6.03;2.80;;;14.30;99.90;;;;;;5052629;28;20266;-70
2022/06/15 02:38:15;;;;;;;3.30;2.63;;;14.30;99.90;;;;;;5060911;28;20702;-70
2022/06/15 02:40:43;;;;;;;5.53;2.93;;;14.30;99.90;;;;;;5068646;28;20268;-70
2022/06/15 02:43:17;;;;;;;3.37;2.90;;;14.30;99.90;;;;;;5054014;28;20219;-70
2022/06/15 02:45:49;;;;;;;4.37;2.67;;;14.20;99.90;;;;;;5054291;28;20215;-70
2022/06/15 02:48:23;;;;;;;3.73;2.40;;;14.20;99.90;;;;;;5053513;28;20223;-70
2022/06/15 02:51:04;;;;;;;3.83;2.83;;;14.20;99.90;;;;;;5058727;28;20243;-70
2022/06/15 02:53:35;;;;;;;3.83;2.23;;;14.20;99.90;;;;;;5051045;28;20709;-70
2022/06/15 02:56:07;;;;;;;4.00;2.47;;;14.20;99.90;;;;;;5052870;28;20223;-70
2022/06/15 02:58:38;;;;;;;3.30;2.60;;;14.20;99.90;;;;;;5049562;28;20251;-70
2022/06/15 03:01:07;;;;;;;3.50;2.30;;;14.10;99.90;;;;;;5048801;28;20754;-70
2022/06/15 03:03:41;;;;;;;3.87;2.83;;;14.10;99.90;;;;;;5051507;28;20246;-70
2022/06/15 03:06:18;;;;;;;3.33;2.90;;;14.10;99.90;;;;;;5051948;28;20225;-70
2022/06/15 03:08:49;;;;;;;3.17;2.43;;;14.10;99.90;;;;;;5045941;28;20219;-70
2022/06/15 03:11:27;;;;;;;3.97;2.80;;;14.10;99.90;;;;;;5053534;28;20341;-70
2022/06/15 03:14:01;;;;;;;3.93;2.80;;;14.10;99.90;;;;;;5053505;28;20226;-70
2022/06/15 03:16:31;;;;;;;4.60;2.80;;;14.10;99.90;;;;;;5051697;28;20311;-70
2022/06/15 03:19:01;;;;;;;3.13;2.40;;;14.00;99.90;;;;;;5053350;28;20250;-70
2022/06/15 03:21:29;;;;;;;3.90;2.70;;;14.00;99.90;;;;;;5070403;28;20779;-70
2022/06/15 03:23:57;;;;;;;3.17;2.53;;;14.00;99.90;;;;;;5053329;28;20564;-70
2022/06/15 03:26:25;;;;;;;4.10;3.07;;;14.00;99.90;;;;;;5071233;28;20310;-70
2022/06/15 03:28:53;;;;;;;2.50;2.30;;;14.10;99.90;;;;;;5060277;28;20233;-70
2022/06/15 03:31:22;;;;;;;2.67;2.40;;;14.20;99.90;;;;;;5055962;28;20231;-70
2022/06/15 03:33:53;;;;;;;3.93;2.77;;;14.20;99.90;;;;;;5053287;28;20235;-71
2022/06/15 03:36:25;;;;;;;4.27;2.80;;;14.10;99.90;;;;;;5057335;28;20223;-70
2022/06/15 03:38:55;;;;;;;2.80;2.50;;;14.10;99.90;;;;;;5068173;28;20617;-70
2022/06/15 03:41:33;;;;;;;5.80;2.73;;;14.10;99.90;;;;;;5052700;28;20730;-70
2022/06/15 03:44:01;;;;;;;2.63;2.43;;;14.10;99.90;;;;;;5052626;28;20227;-70
2022/06/15 03:46:30;;;;;;;3.50;2.53;;;14.20;99.90;;;;;;5045351;28;20310;-70
2022/06/15 03:49:08;;;;;;;4.57;3.17;;;14.30;99.90;;;;;;5057877;28;20215;-70
2022/06/15 03:51:38;;;;;;;4.70;3.20;;;14.20;99.90;;;;;;5053432;28;20633;-70
2022/06/15 03:54:07;;;;;;;3.53;3.23;;;14.20;99.90;;;;;;5052454;28;20245;-70
2022/06/15 03:56:43;;;;;;;4.93;2.90;;;14.20;99.90;;;;;;5051958;28;20237;-70
2022/06/15 03:59:16;;;;;;;3.83;3.00;;;14.20;99.90;;;;;;5055044;28;20227;-70
2022/06/15 04:01:48;;;;;;;4.27;3.10;;;14.20;99.90;;;;;;5049579;28;20729;-70
2022/06/15 04:04:16;;;;;;;4.57;3.17;;;14.10;99.90;;;;;;5053099;28;20255;-70
2022/06/15 04:06:49;;;;;;;4.00;2.90;;;14.10;99.90;;;;;;5052886;28;20607;-70
2022/06/15 04:09:21;;;;;;;2.90;2.60;;;14.00;99.90;;;;;;5052824;28;20234;-70
2022/06/15 04:12:01;;;;;;;2.90;2.47;;;14.00;99.90;;;;;;5053138;28;20235;-70
2022/06/15 04:14:37;;;;;;;3.63;2.90;;;14.10;99.90;;;;;;5052545;28;20231;-70
2022/06/15 04:17:24;;;;;;;3.43;2.57;;;14.20;99.90;;;;;;5071623;28;20694;-70
2022/06/15 04:22:55;;;;;;;3.60;3.30;;;14.40;99.90;;;;;;5056323;28;20223;-70
2022/06/15 04:25:25;;;;;;;5.40;3.83;;;14.50;99.90;;;;;;5055560;28;20231;-70
2022/06/15 04:27:53;;;;;;;5.53;4.07;;;14.70;99.90;;;;;;5056559;28;20322;-70
2022/06/15 04:30:22;;;;;;;5.90;3.60;;;14.70;99.90;;;;;;5056753;28;20219;-70
2022/06/15 04:32:54;;;;;;;5.43;4.43;;;14.70;99.90;;;;;;5056530;28;20259;-70
2022/06/15 04:35:30;;;;;;;5.30;4.17;;;14.70;99.90;;;;;;5055135;28;20223;-70
2022/06/15 04:38:01;;;;;;;4.93;4.40;;;14.80;99.90;;;;;;5047397;28;20718;-70
2022/06/15 04:40:37;;;;;;;6.90;4.10;;;14.70;99.90;;;;;;5056455;28;20322;-70
2022/06/15 04:43:07;;;;;;;6.13;3.87;;;14.80;99.90;;;;;;5056382;28;20310;-70
2022/06/15 04:45:36;;;;;;;5.70;3.73;;;15.00;99.90;;;;;;5054841;28;20269;-70
2022/06/15 04:48:10;;;;;;;6.20;4.00;;;15.10;99.90;;;;;;5062791;28;20251;-70
2022/06/15 04:50:41;;;;;;;6.13;4.53;;;15.40;99.90;;;;;;5056493;28;20258;-70
2022/06/15 04:53:10;;;;;;;6.33;4.47;;;15.60;99.90;;;;;;5060799;28;20720;-70
2022/06/15 04:55:39;;;;;;;7.93;4.60;;;16.00;99.90;;;;;;5055431;28;20220;-70
2022/06/15 04:58:07;;;;;;;8.27;4.90;;;16.20;99.90;;;;;;5071765;28;20690;-70
2022/06/15 05:00:41;;;;;;;5.97;4.47;;;16.40;99.90;;;;;;5050984;28;20231;-70
2022/06/15 05:03:13;;;;;;;5.53;4.07;;;16.60;99.90;;;;;;5055827;28;20237;-70
2022/06/15 05:05:43;;;;;;;7.90;4.67;;;16.90;99.90;;;;;;5065908;28;20583;-70
2022/06/15 05:08:13;;;;;;;5.30;3.80;;;17.10;99.90;;;;;;5054552;28;20586;-70
2022/06/15 05:10:46;;;;;;;7.17;4.07;;;17.40;99.90;;;;;;5049133;28;20717;-69
2022/06/15 05:13:16;;;;;;;6.20;4.07;;;17.60;99.90;;;;;;5057101;28;20243;-70
2022/06/15 05:15:50;;;;;;;3.97;3.57;;;17.60;99.90;;;;;;5048925;28;20224;-70
2022/06/15 05:18:19;;;;;;;4.67;3.70;;;17.80;99.90;;;;;;5058472;28;20227;-70
2022/06/15 05:20:48;;;;;;;5.50;3.60;;;17.90;99.90;;;;;;5059222;28;20226;-70
2022/06/15 05:23:22;;;;;;;3.77;3.17;;;18.10;99.90;;;;;;5051869;28;20235;-70
2022/06/15 05:26:10;;;;;;;6.17;3.97;;;18.30;99.90;;;;;;5048120;28;20246;-70
2022/06/15 05:28:44;;;;;;;5.37;3.67;;;18.50;99.90;;;;;;5055367;28;20224;-70
2022/06/15 05:31:18;;;;;;;7.27;3.60;;;18.60;99.90;;;;;;5051264;28;20314;-70
2022/06/15 05:33:53;;;;;;;5.57;3.57;;;18.80;99.90;;;;;;5055287;28;20722;-70
2022/06/15 05:36:24;;;;;;;5.60;3.10;;;18.90;99.90;;;;;;5049877;28;20315;-69
2022/06/15 05:38:54;;;;;;;6.63;3.47;;;19.10;99.90;;;;;;5050850;28;20220;-70
2022/06/15 05:41:24;;;;;;;5.23;3.23;;;19.20;99.90;;;;;;5071949;28;20237;-69
2022/06/15 05:43:59;;;;;;;6.33;2.63;;;19.50;99.90;;;;;;5055232;28;20221;-69
2022/06/15 05:46:30;;;;;;;3.93;2.70;;;19.50;99.90;;;;;;5059904;28;20295;-70
2022/06/15 05:49:13;;;;;;;5.63;3.27;;;19.60;99.90;;;;;;5046721;28;20226;-70
2022/06/15 05:51:42;;;;;;;5.93;2.80;;;19.70;99.90;;;;;;5041426;28;20264;-69
2022/06/15 05:54:11;;;;;;;5.10;2.57;;;19.80;99.90;;;;;;5043495;28;20217;-70
2022/06/15 05:56:39;;;;;;;5.63;3.17;;;20.00;99.90;;;;;;5061884;28;20728;-69
2022/06/15 05:59:07;;;;;;;5.07;2.50;;;20.10;99.90;;;;;;5061007;28;20241;-69
2022/06/15 06:01:38;;;;;;;5.47;2.70;;;20.20;99.90;;;;;;5062773;28;20261;-69
2022/06/15 06:04:07;;;;;;;6.67;2.63;;;20.30;99.90;;;;;;5070906;28;20232;-69
2022/06/15 06:06:38;;;;;;;4.50;2.30;;;20.40;99.90;;;;;;5070803;28;20634;-69
2022/06/15 06:09:07;;;;;;;3.20;1.97;;;20.60;99.90;;;;;;5072566;28;20226;-69
2022/06/15 06:11:37;;;;;;;5.23;2.00;;;20.60;99.90;;;;;;5067984;28;20238;-69
2022/06/15 06:14:05;;;;;;;6.83;2.20;;;20.70;99.90;;;;;;5066874;28;20799;-69
2022/06/15 06:16:33;;;;;;;5.13;2.23;;;20.90;99.90;;;;;;5067600;28;20226;-68
2022/06/15 06:19:01;;;;;;;6.00;2.87;;;21.10;99.90;;;;;;5069199;28;20626;-69
2022/06/15 06:21:29;;;;;;;5.97;2.07;;;21.10;99.90;;;;;;5070818;28;20223;-69
2022/06/15 06:23:57;;;;;;;4.20;2.17;;;21.30;99.90;;;;;;5072541;28;20309;-69
2022/06/15 06:26:28;;;;;;;3.63;1.97;;;21.50;99.90;;;;;;5067093;28;20239;-69
2022/06/15 06:28:58;;;;;;;4.70;2.10;;;21.70;99.90;;;;;;5065957;28;20232;-69
2022/06/15 06:31:27;;;;;;;5.50;1.90;;;21.90;99.90;;;;;;5071777;28;20238;-69
2022/06/15 06:33:55;;;;;;;3.37;1.70;;;22.10;99.90;;;;;;5070532;28;20279;-69
2022/06/15 06:36:29;;;;;;;3.80;2.07;;;22.10;99.90;;;;;;5069134;28;20227;-70
2022/06/15 06:38:57;;;;;;;4.47;1.50;;;22.30;99.90;;;;;;5066079;28;20684;-70
2022/06/15 06:41:27;;;;;;;4.60;1.50;;;22.30;99.90;;;;;;5071544;28;20238;-69
2022/06/15 06:44:04;;;;;;;3.80;1.77;;;22.40;99.90;;;;;;5068424;28;20234;-70
2022/06/15 06:46:33;;;;;;;2.93;1.60;;;22.40;99.90;;;;;;5071137;28;20234;-70
2022/06/15 06:49:04;;;;;;;4.87;1.70;;;22.70;99.90;;;;;;5070988;28;20230;-70
2022/06/15 06:51:35;;;;;;;5.27;2.20;;;22.80;99.90;;;;;;5071980;28;20231;-69
2022/06/15 06:54:03;;;;;;;3.67;1.70;;;22.60;99.90;;;;;;5071949;28;20211;-69
2022/06/15 06:56:34;;;;;;;3.40;1.70;;;22.70;99.90;;;;;;5071322;28;20222;-69
2022/06/15 06:59:03;;;;;;;5.07;1.70;;;23.00;99.90;;;;;;5067986;28;20744;-69
2022/06/15 07:01:32;;;;;;;4.07;1.63;;;23.00;99.90;;;;;;5066536;28;20591;-69
2022/06/15 07:04:00;;;;;;;3.60;1.80;;;23.30;99.90;;;;;;5064022;28;20219;-69
2022/06/15 07:06:28;;;;;;;4.10;1.60;;;23.40;99.90;;;;;;5069484;28;20296;-69
2022/06/15 07:08:57;;;;;;;3.77;1.77;;;23.60;99.90;;;;;;5064939;28;20215;-69
2022/06/15 07:11:25;;;;;;;6.20;2.30;;;23.70;99.90;;;;;;5043306;28;20338;-70
2022/06/15 07:13:54;;;;;;;4.90;2.00;;;23.80;99.90;;;;;;5044493;28;20231;-69
2022/06/15 07:16:24;;;;;;;5.90;2.00;;;23.50;99.90;;;;;;5057815;28;20726;-69
2022/06/15 07:18:53;;;;;;;3.07;1.80;;;23.30;99.90;;;;;;5059194;28;20695;-70
2022/06/15 07:21:24;;;;;;;3.77;1.97;;;23.90;99.90;;;;;;5057664;28;20242;-69
2022/06/15 07:23:55;;;;;;;3.97;1.90;;;23.90;99.90;;;;;;5061840;28;20230;-69
2022/06/15 07:26:26;;;;;;;5.43;2.00;;;24.00;99.90;;;;;;5060964;28;20771;-69
2022/06/15 07:28:55;;;;;;;4.23;1.77;;;23.80;99.90;;;;;;5061986;28;20578;-69
2022/06/15 07:31:26;;;;;;;4.60;1.90;;;24.10;99.90;;;;;;5058144;28;20328;-69
2022/06/15 07:33:54;;;;;;;4.00;1.90;;;24.30;99.90;;;;;;5060845;28;20303;-69
2022/06/15 07:36:23;;;;;;;3.30;1.77;;;24.50;99.90;;;;;;5061050;28;20227;-69
2022/06/15 07:38:52;;;;;;;4.00;1.50;;;25.00;99.90;;;;;;5061536;28;20623;-69
2022/06/15 07:41:21;;;;;;;2.13;1.43;;;25.20;99.90;;;;;;5054304;28;20239;-69
2022/06/15 07:43:49;;;;;;;3.83;1.87;;;25.40;99.90;;;;;;5059522;28;20231;-69
2022/06/15 07:46:18;;;;;;;3.80;2.10;;;25.60;99.90;;;;;;5038288;28;20233;-69
2022/06/15 07:51:44;;;;;;;2.97;1.80;;;25.00;99.90;;;;;;5054642;28;20309;-69
2022/06/15 07:54:15;;;;;;;4.00;2.13;;;25.40;99.90;;;;;;5061239;28;20270;-69
2022/06/15 07:56:44;;;;;;;4.47;1.50;;;25.40;99.90;;;;;;5064892;28;20252;-69
2022/06/15 07:59:28;;;;;;;2.73;1.80;;;25.60;99.90;;;;;;5068681;28;20290;-69
2022/06/15 08:01:56;;;;;;;3.27;1.40;;;26.00;99.90;;;;;;5055485;28;20237;-69
2022/06/15 08:04:25;;;;;;;3.80;1.50;;;25.80;99.90;;;;;;5061236;28;20553;-69
2022/06/15 08:06:54;;;;;;;2.93;1.57;;;25.70;99.90;;;;;;5062808;28;20734;-69
2022/06/15 08:09:22;;;;;;;3.90;1.90;;;25.40;99.90;;;;;;5063322;28;20266;-69
2022/06/15 08:14:38;;;;;;;2.93;1.40;;;25.20;99.90;;;;;;5062178;28;20651;-69
2022/06/15 08:17:09;;;;;;;3.87;1.60;;;25.80;99.90;;;;;;5064325;28;20714;-69
2022/06/15 08:19:42;;;;;;;4.13;1.60;;;26.10;99.90;;;;;;5064465;28;20279;-69
2022/06/15 08:22:12;;;;;;;2.80;1.50;;;26.90;99.90;;;;;;5059867;28;20878;-68
2022/06/15 08:24:42;;;;;;;2.47;1.20;;;27.10;99.90;;;;;;5063827;28;20233;-69
2022/06/15 08:27:11;;;;;;;1.90;1.27;;;26.50;99.90;;;;;;5064396;28;20761;-69
2022/06/15 08:29:40;;;;;;;2.53;1.40;;;25.70;99.90;;;;;;5064143;28;20221;-69
2022/06/15 08:32:09;;;;;;;5.03;1.50;;;25.10;99.90;;;;;;5060086;28;20266;-69
2022/06/15 08:34:40;;;;;;;2.53;1.40;;;24.70;99.90;;;;;;5063077;28;20867;-69
2022/06/15 08:37:12;;;;;;;2.50;1.20;;;24.50;99.90;;;;;;5064183;28;20267;-69
2022/06/15 08:39:41;;;;;;;4.47;1.33;;;24.90;99.90;;;;;;5063736;28;20737;-69
2022/06/15 08:42:17;;;;;;;3.37;1.10;;;25.60;99.90;;;;;;5059769;28;20312;-69
2022/06/15 08:44:54;;;;;;;2.37;1.17;;;26.30;99.90;;;;;;5063122;28;20283;-69
2022/06/15 08:47:37;;;;;;;3.97;1.30;;;25.90;99.90;;;;;;5063485;28;20238;-69
2022/06/15 08:50:16;;;;;;;3.63;1.13;;;26.10;99.90;;;;;;5064070;28;20628;-69
2022/06/15 08:52:48;;;;;;;2.57;1.30;;;25.70;99.90;;;;;;5059711;28;20282;-69
2022/06/15 08:55:25;;;;;;;2.87;1.13;;;25.20;99.90;;;;;;5062674;28;20576;-69
2022/06/15 08:57:56;;;;;;;2.47;1.20;;;24.70;99.90;;;;;;5058606;28;20228;-69
2022/06/15 09:00:27;;;;;;;1.77;1.20;;;24.40;99.90;;;;;;5061009;28;20239;-69
2022/06/15 09:03:09;;;;;;;2.30;1.10;;;24.10;99.90;;;;;;5055902;28;20995;-69
2022/06/15 09:05:49;;;;;;;4.63;1.60;;;23.90;99.90;;;;;;5059678;28;20245;-69
2022/06/15 09:08:44;;;;;;;3.23;1.60;;;23.90;99.90;;;;;;5061069;28;20287;-70
2022/06/15 09:11:19;;;;;;;4.10;2.00;;;23.60;99.90;;;;;;5056778;28;20236;-70
2022/06/15 09:14:00;;;;;;;5.13;1.80;;;23.50;99.90;;;;;;5060571;28;20224;-69
2022/06/15 09:16:36;;;;;;;3.23;1.53;;;23.30;99.90;;;;;;5061593;28;20880;-69
2022/06/15 09:19:08;;;;;;;3.23;1.90;;;23.10;99.90;;;;;;5062894;28;20303;-69
2022/06/15 09:21:43;;;;;;;5.27;2.00;;;23.00;99.90;;;;;;5056404;28;20690;-69
2022/06/15 09:24:14;;;;;;;5.30;1.57;;;22.90;99.90;;;;;;5061311;28;20227;-70
2022/06/15 09:26:49;;;;;;;4.57;1.70;;;23.00;99.90;;;;;;5060612;28;20255;-69
2022/06/15 09:29:22;;;;;;;5.70;1.70;;;23.10;99.90;;;;;;5061408;28;20232;-70
2022/06/15 09:31:55;;;;;;;4.67;1.63;;;22.90;99.90;;;;;;5069824;28;20228;-69
2022/06/15 09:34:28;;;;;;;4.30;2.00;;;22.90;99.90;;;;;;5072221;28;20257;-70
2022/06/15 09:36:59;;;;;;;3.83;1.77;;;23.00;99.90;;;;;;5063825;28;20227;-69
2022/06/15 09:39:29;;;;;;;4.70;2.20;;;23.00;99.90;;;;;;5063996;28;20236;-69
2022/06/15 09:42:08;;;;;;;3.13;1.70;;;23.60;99.90;;;;;;5064478;28;20296;-69
2022/06/15 09:44:42;;;;;;;4.27;2.03;;;24.20;99.90;;;;;;5063542;28;20227;-69
2022/06/15 09:47:18;;;;;;;4.60;2.10;;;24.40;99.90;;;;;;5062231;28;20224;-69
2022/06/15 09:49:54;;;;;;;3.77;2.00;;;25.10;99.90;;;;;;5039794;28;20235;-69
2022/06/15 09:52:38;;;;;;;5.20;1.77;;;26.10;99.90;;;;;;5060796;28;20287;-69
2022/06/15 09:55:11;;;;;;;3.60;2.30;;;26.80;99.90;;;;;;5061951;28;20316;-68
2022/06/15 09:57:41;;;;;;;4.37;2.37;;;27.10;99.90;;;;;;5063455;28;20226;-68
2022/06/15 10:00:14;;;;;;;3.77;2.60;;;27.40;99.90;;;;;;5063175;28;20234;-68
2022/06/15 10:02:47;;;;;;;5.87;3.17;;;27.10;99.90;;;;;;5063156;28;20226;-69
2022/06/15 10:05:24;;;;;;;4.60;2.63;;;26.50;99.90;;;;;;5061947;28;21129;-69
2022/06/15 10:07:55;;;;;;;6.13;2.60;;;26.50;99.90;;;;;;5064471;28;20698;-69
2022/06/15 10:10:27;;;;;;;4.47;2.40;;;26.80;99.90;;;;;;5062550;28;20275;-68
2022/06/15 10:12:57;;;;;;;4.33;2.17;;;27.60;99.90;;;;;;5063043;28;20408;-68
2022/06/15 10:15:37;;;;;;;5.70;2.43;;;28.20;99.90;;;;;;5060678;28;20234;-68
2022/06/15 10:18:19;;;;;;;3.77;2.30;;;28.50;99.90;;;;;;5062351;28;20227;-68
2022/06/15 10:21:04;;;;;;;6.30;2.80;;;28.90;98.90;;;;;;5064164;28;20713;-68
2022/06/15 10:23:40;;;;;;;5.73;3.10;;;28.90;97.90;;;;;;5064185;28;20626;-68
2022/06/15 10:26:13;;;;;;;4.03;2.30;;;28.80;98.60;;;;;;5059985;28;20230;-68
2022/06/15 10:28:42;;;;;;;4.80;2.60;;;29.20;98.90;;;;;;5062823;28;20670;-67
2022/06/15 10:31:15;;;;;;;3.77;1.90;;;29.60;98.40;;;;;;5043953;28;20249;-68
2022/06/15 10:33:47;;;;;;;5.03;2.93;;;28.80;98.80;;;;;;5063045;28;21045;-67
2022/06/15 10:36:22;;;;;;;4.73;2.37;;;28.20;99.00;;;;;;5060661;28;20684;-68
2022/06/15 10:39:00;;;;;;;6.43;3.07;;;28.00;99.60;;;;;;5062199;28;20626;-68
2022/06/15 10:41:49;;;;;;;4.83;3.03;;;27.50;99.30;;;;;;5062647;28;20219;-68
2022/06/15 10:44:29;;;;;;;5.00;2.80;;;26.90;99.90;;;;;;5062050;28;20816;-69
2022/06/15 10:47:01;;;;;;;6.73;2.40;;;27.00;99.90;;;;;;5061275;28;20257;-67
2022/06/15 10:49:33;;;;;;;5.73;2.73;;;27.50;99.90;;;;;;5061950;28;21653;-68
2022/06/15 10:52:02;;;;;;;4.67;2.30;;;27.80;99.90;;;;;;5061768;28;20233;-68
2022/06/15 11:02:06;;;;;;;4.97;2.27;;;28.10;99.40;;;;;;5061415;28;20704;-67
2022/06/15 11:03:15;;;;;;;5.50;2.60;;;28.60;96.20;;;;;;5063684;28;21226;-69
2022/06/15 11:05:46;;;;;;;3.70;2.20;;;27.60;97.30;;;;;;5064541;28;20740;-68
2022/06/15 11:08:18;;;;;;;4.53;2.60;;;27.10;98.70;;;;;;5072091;28;20320;-68
2022/06/15 11:10:51;;;;;;;3.73;2.63;;;26.60;98.50;;;;;;5069362;28;20555;-68
2022/06/15 11:13:30;;;;;;;4.67;2.30;;;25.90;98.60;;;;;;5069812;28;20587;-68
2022/06/15 11:18:59;;;;;;;6.33;2.97;;;25.30;99.90;;;;;;5070653;28;20320;-69
2022/06/15 11:21:32;;;;;;;6.80;3.10;;;24.80;99.90;;;;;;5071423;28;20320;-68
2022/06/15 11:24:05;;;;;;;3.27;2.20;;;24.80;99.90;;;;;;5069439;28;20225;-68
2022/06/15 11:26:55;;;;;;;4.27;2.40;;;25.60;99.90;;;;;;5069528;28;20222;-68
2022/06/15 11:29:52;;;;;;;5.60;2.27;;;27.10;99.90;;;;;;5068029;28;20252;-68
2022/06/15 11:32:32;;;;;;;4.60;2.87;;;27.80;98.40;;;;;;5072990;28;20241;-68
2022/06/15 11:35:21;;;;;;;6.30;3.30;;;28.30;98.50;;;;;;5057201;28;20277;-68
2022/06/15 11:37:53;;;;;;;4.30;2.27;;;28.80;97.90;;;;;;5060054;28;20238;-68
2022/06/15 11:40:27;;;;;;;6.13;3.20;;;29.10;97.60;;;;;;5062817;28;20238;-67
2022/06/15 11:42:57;;;;;;;5.53;2.30;;;29.20;96.70;;;;;;5063511;28;20238;-68
2022/06/15 11:45:31;;;;;;;4.93;2.27;;;29.30;97.10;;;;;;5060160;28;20911;-69
2022/06/15 11:48:09;;;;;;;4.30;2.60;;;29.10;97.10;;;;;;5064962;28;20314;-68
2022/06/15 11:50:45;;;;;;;6.63;3.50;;;29.10;96.40;;;;;;5064790;28;20258;-68
2022/06/15 11:53:24;;;;;;;3.17;1.90;;;28.80;94.60;;;;;;5065337;28;20751;-67
2022/06/15 11:58:59;;;;;;;4.13;2.50;;;29.30;96.40;;;;;;5355976;23;20598;-58
2022/06/15 12:01:57;;;;;;;3.87;2.60;;;29.20;94.90;;;;;;4944468;28;20250;-59
2022/06/15 12:05:00;;;;;;;3.67;2.50;;;28.50;94.90;;;;;;4946215;28;20775;-59
2022/06/15 12:07:35;;;;;;;6.23;3.43;;;27.70;96.40;;;;;;4947105;28;20718;-58
2022/06/15 12:10:15;;;;;;;6.67;2.90;;;27.20;97.20;;;;;;4944157;28;20249;-47
2022/06/15 12:12:49;;;;;;;4.77;2.90;;;27.00;98.00;;;;;;4945906;28;20231;-47
2022/06/15 12:15:33;;;;;;;6.17;3.33;;;26.30;98.70;;;;;;4942045;28;20250;-49
2022/06/15 12:18:13;;;;;;;9.17;4.33;;;25.90;99.60;;;;;;4945369;28;21444;-49
2022/06/15 12:21:00;;;;;;;6.00;4.47;;;25.40;99.70;;;;;;4945921;28;20633;-49
2022/06/15 12:23:40;;;;;;;7.37;3.70;;;24.70;99.40;;;;;;4945371;28;20257;-46
2022/06/15 12:26:22;;;;;;;5.90;3.40;;;24.50;99.90;;;;;;4943476;28;20663;-46
2022/06/15 12:29:01;;;;;;;4.73;3.17;;;24.70;99.90;;;;;;4943730;28;20250;-48
2022/06/15 12:31:52;;;;;;;4.83;3.07;;;24.90;99.90;;;;;;4944445;28;20256;-46
2022/06/15 12:34:36;;;;;;;4.77;3.40;;;25.20;99.90;;;;;;4946296;28;20359;-48
2022/06/15 12:37:11;;;;;;;4.40;3.07;;;25.20;99.90;;;;;;4943226;28;20735;-47
2022/06/15 12:40:10;;;;;;;5.70;3.67;;;25.40;99.90;;;;;;4944123;28;20357;-46
2022/06/15 12:42:42;;;;;;;3.40;2.70;;;25.30;99.90;;;;;;4955371;29;20558;-46
2022/06/15 12:45:18;;;;;;;4.23;2.77;;;25.50;99.90;;;;;;4953812;28;20748;-46
2022/06/15 12:47:53;;;;;;;4.87;2.30;;;26.10;99.90;;;;;;4962476;28;20336;-46
2022/06/15 12:50:41;;;;;;;6.27;3.60;;;26.30;99.90;;;;;;4955024;28;20224;-47
2022/06/15 12:53:25;;;;;;;2.83;1.93;;;26.10;99.80;;;;;;4960599;28;20296;-46
2022/06/15 12:56:11;;;;;;;6.03;4.30;;;26.00;99.90;;;;;;4952387;28;20606;-47
2022/06/15 12:58:53;;;;;;;5.70;3.93;;;25.80;99.10;;;;;;4960144;28;20701;-46
2022/06/15 13:01:24;;;;;;;3.60;3.10;;;25.40;99.90;;;;;;4963828;28;20246;-45
2022/06/15 13:04:09;;;;;;;4.87;3.20;;;25.30;99.90;;;;;;4959821;28;20244;-46
2022/06/15 13:06:39;;;;;;;4.27;3.40;;;25.40;99.90;;;;;;4960316;28;20747;-47
2022/06/15 13:09:19;;;;;;;6.27;2.90;;;25.50;99.90;;;;;;4964145;28;20216;-48
2022/06/15 13:12:00;;;;;;;3.47;2.43;;;24.80;99.90;;;;;;4959541;28;20225;-46
2022/06/15 13:14:32;;;;;;;7.50;2.83;;;24.40;99.90;;;;;;4960250;28;20318;-49
2022/06/15 13:17:10;;;;;;;6.37;3.30;;;24.20;99.90;;;;;;4960585;28;20237;-47
2022/06/15 13:19:43;;;;;;;5.77;2.90;;;23.80;99.90;;;;;;4959403;28;20259;-49
2022/06/15 13:22:14;;;;;;;4.53;2.70;;;23.70;99.90;;;;;;4965131;28;20778;-46
2022/06/15 13:24:56;;;;;;;6.93;3.43;;;23.90;99.90;;;;;;4956647;28;20260;-46
2022/06/15 13:28:21;;;;;;;5.87;2.40;;;23.70;99.90;;;;;;4952717;28;20240;-46
2022/06/15 13:32:46;;;;;;;5.17;2.60;;;23.60;99.90;;;;;;4954849;28;20252;-46
2022/06/15 13:37:12;;;;;;;7.87;3.27;;;23.80;99.90;;;;;;4950807;28;20234;-45
2022/06/15 13:41:38;;;;;;;5.63;2.63;;;23.50;99.90;;;;;;4955286;28;20274;-46
2022/06/15 13:46:04;;;;;;;5.93;2.90;;;23.40;99.90;;;;;;4954006;28;20283;-45
2022/06/15 13:50:29;;;;;;;5.30;2.70;;;23.70;99.90;;;;;;4946938;28;20757;-46
2022/06/15 13:54:55;;;;;;;8.60;3.40;;;23.90;99.90;;;;;;4943466;28;20269;-46